sensor_id;sensor_type;location;lat;lon;timestamp;pressure;altitude;pressure_sealevel;temperature;humidity
76598;BME280;65486;53.144;18.134;2023-06-22T00:00:13;101248.39;;;18.98;80.15
76598;BME280;65486;53.144;18.134;2023-06-22T00:02:59;101250.77;;;19.02;80.34
76598;BME280;65486;53.144;18.134;2023-06-22T00:05:25;101252.02;;;19.05;80.45
76598;BME280;65486;53.144;18.134;2023-06-22T00:07:51;101253.79;;;19.08;80.23
76598;BME280;65486;53.144;18.134;2023-06-22T00:10:18;101260.61;;;19.09;80.15
76598;BME280;65486;53.144;18.134;2023-06-22T00:12:45;101267.39;;;19.11;80.16
76598;BME280;65486;53.144;18.134;2023-06-22T00:15:14;101267.58;;;19.14;80.35
76598;BME280;65486;53.144;18.134;2023-06-22T00:17:40;101273.20;;;19.18;80.38
76598;BME280;65486;53.144;18.134;2023-06-22T00:20:07;101273.92;;;19.22;80.29
76598;BME280;65486;53.144;18.134;2023-06-22T00:22:34;101274.82;;;19.25;80.17
76598;BME280;65486;53.144;18.134;2023-06-22T00:25:06;101276.92;;;19.28;80.06
76598;BME280;65486;53.144;18.134;2023-06-22T00:27:33;101276.88;;;19.29;80.02
76598;BME280;65486;53.144;18.134;2023-06-22T00:29:59;101275.64;;;19.30;79.95
76598;BME280;65486;53.144;18.134;2023-06-22T00:32:28;101275.43;;;19.31;80.04
76598;BME280;65486;53.144;18.134;2023-06-22T00:34:54;101276.52;;;19.32;79.84
76598;BME280;65486;53.144;18.134;2023-06-22T00:37:23;101277.75;;;19.33;79.67
76598;BME280;65486;53.144;18.134;2023-06-22T00:39:53;101279.71;;;19.33;79.65
76598;BME280;65486;53.144;18.134;2023-06-22T00:42:19;101284.34;;;19.33;79.82
76598;BME280;65486;53.144;18.134;2023-06-22T00:44:46;101286.98;;;19.33;79.87
76598;BME280;65486;53.144;18.134;2023-06-22T00:47:14;101285.40;;;19.34;79.68
76598;BME280;65486;53.144;18.134;2023-06-22T00:49:45;101294.20;;;19.33;79.56
76598;BME280;65486;53.144;18.134;2023-06-22T00:52:13;101291.00;;;19.33;79.76
76598;BME280;65486;53.144;18.134;2023-06-22T00:54:53;101283.90;;;19.33;79.52
76598;BME280;65486;53.144;18.134;2023-06-22T00:57:20;101281.34;;;19.34;79.46
76598;BME280;65486;53.144;18.134;2023-06-22T00:59:48;101284.69;;;19.34;79.52
76598;BME280;65486;53.144;18.134;2023-06-22T01:02:14;101287.45;;;19.32;79.42
76598;BME280;65486;53.144;18.134;2023-06-22T01:04:41;101282.75;;;19.29;79.47
76598;BME280;65486;53.144;18.134;2023-06-22T01:12:42;101283.63;;;19.20;79.67
76598;BME280;65486;53.144;18.134;2023-06-22T01:15:15;101283.33;;;19.18;79.74
76598;BME280;65486;53.144;18.134;2023-06-22T01:17:48;101283.52;;;19.15;79.57
76598;BME280;65486;53.144;18.134;2023-06-22T01:20:16;101290.79;;;19.13;79.53
76598;BME280;65486;53.144;18.134;2023-06-22T01:23:04;101288.15;;;19.12;79.67
76598;BME280;65486;53.144;18.134;2023-06-22T01:25:43;101289.70;;;19.11;79.60
76598;BME280;65486;53.144;18.134;2023-06-22T01:28:52;101289.52;;;19.09;79.58
76598;BME280;65486;53.144;18.134;2023-06-22T01:31:24;101292.65;;;19.08;79.58
76598;BME280;65486;53.144;18.134;2023-06-22T01:34:01;101288.84;;;19.07;79.21
76598;BME280;65486;53.144;18.134;2023-06-22T01:36:29;101290.16;;;19.07;79.28
76598;BME280;65486;53.144;18.134;2023-06-22T01:38:57;101285.13;;;19.05;79.08
76598;BME280;65486;53.144;18.134;2023-06-22T01:41:26;101286.73;;;19.04;78.99
76598;BME280;65486;53.144;18.134;2023-06-22T01:43:54;101285.65;;;19.01;79.13
76598;BME280;65486;53.144;18.134;2023-06-22T01:46:22;101285.96;;;18.99;79.04
76598;BME280;65486;53.144;18.134;2023-06-22T01:48:49;101285.89;;;18.97;78.96
76598;BME280;65486;53.144;18.134;2023-06-22T01:51:16;101279.25;;;18.92;78.91
76598;BME280;65486;53.144;18.134;2023-06-22T01:53:43;101278.83;;;18.88;78.97
76598;BME280;65486;53.144;18.134;2023-06-22T01:56:09;101280.13;;;18.84;78.79
76598;BME280;65486;53.144;18.134;2023-06-22T01:58:42;101278.16;;;18.78;78.81
76598;BME280;65486;53.144;18.134;2023-06-22T02:01:12;101277.77;;;18.71;78.74
76598;BME280;65486;53.144;18.134;2023-06-22T02:04:07;101277.23;;;18.62;78.74
76598;BME280;65486;53.144;18.134;2023-06-22T02:06:42;101284.77;;;18.57;78.91
76598;BME280;65486;53.144;18.134;2023-06-22T02:09:15;101284.17;;;18.50;79.03
76598;BME280;65486;53.144;18.134;2023-06-22T02:11:44;101282.70;;;18.45;79.26
76598;BME280;65486;53.144;18.134;2023-06-22T02:14:13;101282.93;;;18.39;79.42
76598;BME280;65486;53.144;18.134;2023-06-22T02:16:40;101280.73;;;18.31;79.21
76598;BME280;65486;53.144;18.134;2023-06-22T02:19:06;101280.69;;;18.24;79.37
76598;BME280;65486;53.144;18.134;2023-06-22T02:21:36;101282.25;;;18.19;79.54
76598;BME280;65486;53.144;18.134;2023-06-22T02:24:02;101286.83;;;18.14;79.70
76598;BME280;65486;53.144;18.134;2023-06-22T02:26:30;101295.29;;;18.08;79.55
76598;BME280;65486;53.144;18.134;2023-06-22T02:28:56;101305.16;;;18.03;79.53
76598;BME280;65486;53.144;18.134;2023-06-22T02:31:22;101306.77;;;17.99;79.72
76598;BME280;65486;53.144;18.134;2023-06-22T02:33:48;101309.30;;;17.95;79.69
76598;BME280;65486;53.144;18.134;2023-06-22T02:36:20;101313.37;;;17.91;79.66
76598;BME280;65486;53.144;18.134;2023-06-22T02:38:48;101310.55;;;17.84;79.90
76598;BME280;65486;53.144;18.134;2023-06-22T02:41:15;101320.84;;;17.87;79.49
76598;BME280;65486;53.144;18.134;2023-06-22T02:43:45;101323.66;;;17.85;79.54
76598;BME280;65486;53.144;18.134;2023-06-22T02:46:13;101326.63;;;17.85;79.64
76598;BME280;65486;53.144;18.134;2023-06-22T02:48:40;101318.23;;;17.79;79.50
76598;BME280;65486;53.144;18.134;2023-06-22T02:51:07;101327.13;;;17.81;79.57
76598;BME280;65486;53.144;18.134;2023-06-22T02:53:34;101322.59;;;17.80;79.56
76598;BME280;65486;53.144;18.134;2023-06-22T02:56:05;101322.46;;;17.78;79.68
76598;BME280;65486;53.144;18.134;2023-06-22T02:58:34;101322.55;;;17.74;79.81
76598;BME280;65486;53.144;18.134;2023-06-22T03:01:06;101325.79;;;17.77;79.73
76598;BME280;65486;53.144;18.134;2023-06-22T03:03:32;101326.31;;;17.78;79.65
76598;BME280;65486;53.144;18.134;2023-06-22T03:05:59;101331.73;;;17.79;79.65
76598;BME280;65486;53.144;18.134;2023-06-22T03:08:28;101331.63;;;17.79;79.56
76598;BME280;65486;53.144;18.134;2023-06-22T03:10:56;101335.10;;;17.81;79.53
76598;BME280;65486;53.144;18.134;2023-06-22T03:13:22;101340.45;;;17.83;79.44
76598;BME280;65486;53.144;18.134;2023-06-22T03:15:49;101337.58;;;17.86;79.34
76598;BME280;65486;53.144;18.134;2023-06-22T03:18:15;101344.89;;;17.90;79.24
76598;BME280;65486;53.144;18.134;2023-06-22T03:20:43;101349.20;;;17.95;79.11
76598;BME280;65486;53.144;18.134;2023-06-22T03:23:09;101352.31;;;17.98;78.83
76598;BME280;65486;53.144;18.134;2023-06-22T03:25:35;101347.84;;;18.01;78.80
76598;BME280;65486;53.144;18.134;2023-06-22T03:28:02;101357.29;;;18.07;78.81
76598;BME280;65486;53.144;18.134;2023-06-22T03:30:28;101356.86;;;18.13;78.54
76598;BME280;65486;53.144;18.134;2023-06-22T03:32:55;101353.65;;;18.18;78.30
76598;BME280;65486;53.144;18.134;2023-06-22T03:35:26;101353.17;;;18.24;77.80
76598;BME280;65486;53.144;18.134;2023-06-22T03:37:54;101354.09;;;18.27;77.72
76598;BME280;65486;53.144;18.134;2023-06-22T03:40:20;101358.74;;;18.32;77.41
76598;BME280;65486;53.144;18.134;2023-06-22T03:42:46;101358.11;;;18.40;77.25
76598;BME280;65486;53.144;18.134;2023-06-22T03:45:13;101358.35;;;18.46;76.72
76598;BME280;65486;53.144;18.134;2023-06-22T03:47:41;101365.45;;;18.54;76.85
76598;BME280;65486;53.144;18.134;2023-06-22T03:50:07;101364.89;;;18.61;76.60
76598;BME280;65486;53.144;18.134;2023-06-22T03:52:35;101370.92;;;18.71;76.44
76598;BME280;65486;53.144;18.134;2023-06-22T03:55:01;101376.20;;;18.79;76.18
76598;BME280;65486;53.144;18.134;2023-06-22T03:57:28;101378.90;;;18.90;75.97
76598;BME280;65486;53.144;18.134;2023-06-22T03:59:56;101379.99;;;18.99;75.69
76598;BME280;65486;53.144;18.134;2023-06-22T04:02:24;101378.73;;;19.06;75.44
76598;BME280;65486;53.144;18.134;2023-06-22T04:04:50;101376.48;;;19.13;75.16
76598;BME280;65486;53.144;18.134;2023-06-22T04:07:18;101370.29;;;19.19;74.93
76598;BME280;65486;53.144;18.134;2023-06-22T04:09:44;101372.42;;;19.25;74.77
76598;BME280;65486;53.144;18.134;2023-06-22T04:12:13;101369.66;;;19.35;74.50
76598;BME280;65486;53.144;18.134;2023-06-22T04:14:39;101376.84;;;19.44;74.24
76598;BME280;65486;53.144;18.134;2023-06-22T04:17:08;101382.65;;;19.52;73.85
76598;BME280;65486;53.144;18.134;2023-06-22T04:19:34;101375.52;;;19.59;73.68
76598;BME280;65486;53.144;18.134;2023-06-22T04:22:03;101374.29;;;19.64;73.89
76598;BME280;65486;53.144;18.134;2023-06-22T04:24:29;101374.70;;;19.74;73.60
76598;BME280;65486;53.144;18.134;2023-06-22T04:26:57;101379.59;;;19.86;73.27
76598;BME280;65486;53.144;18.134;2023-06-22T04:29:24;101382.97;;;19.98;72.68
76598;BME280;65486;53.144;18.134;2023-06-22T04:31:54;101381.52;;;20.09;72.65
76598;BME280;65486;53.144;18.134;2023-06-22T04:34:22;101373.80;;;20.21;72.02
76598;BME280;65486;53.144;18.134;2023-06-22T04:36:48;101372.52;;;20.29;71.70
76598;BME280;65486;53.144;18.134;2023-06-22T04:39:14;101373.66;;;20.41;71.52
76598;BME280;65486;53.144;18.134;2023-06-22T04:41:41;101368.38;;;20.51;70.81
76598;BME280;65486;53.144;18.134;2023-06-22T04:44:15;101370.29;;;20.55;70.39
76598;BME280;65486;53.144;18.134;2023-06-22T04:46:57;101366.34;;;20.63;70.47
76598;BME280;65486;53.144;18.134;2023-06-22T04:49:27;101364.76;;;20.76;70.26
76598;BME280;65486;53.144;18.134;2023-06-22T04:52:04;101369.50;;;20.96;69.76
76598;BME280;65486;53.144;18.134;2023-06-22T04:54:34;101373.51;;;21.46;68.80
76598;BME280;65486;53.144;18.134;2023-06-22T04:57:02;101373.42;;;21.85;67.56
76598;BME280;65486;53.144;18.134;2023-06-22T04:59:31;101375.17;;;21.96;66.26
76598;BME280;65486;53.144;18.134;2023-06-22T05:01:59;101381.24;;;21.96;66.48
76598;BME280;65486;53.144;18.134;2023-06-22T05:04:26;101386.71;;;22.11;66.21
76598;BME280;65486;53.144;18.134;2023-06-22T05:07:04;101386.19;;;22.34;65.65
76598;BME280;65486;53.144;18.134;2023-06-22T05:09:31;101381.31;;;22.46;65.36
76598;BME280;65486;53.144;18.134;2023-06-22T05:11:59;101380.86;;;22.60;65.11
76598;BME280;65486;53.144;18.134;2023-06-22T05:14:29;101380.27;;;22.69;64.76
76598;BME280;65486;53.144;18.134;2023-06-22T05:16:56;101386.25;;;22.78;64.63
76598;BME280;65486;53.144;18.134;2023-06-22T05:19:25;101394.52;;;22.89;64.36
76598;BME280;65486;53.144;18.134;2023-06-22T05:21:57;101403.95;;;23.02;64.04
76598;BME280;65486;53.144;18.134;2023-06-22T05:24:23;101400.02;;;23.18;63.40
76598;BME280;65486;53.144;18.134;2023-06-22T05:26:49;101394.16;;;23.28;61.37
76598;BME280;65486;53.144;18.134;2023-06-22T05:29:16;101395.31;;;23.39;62.26
76598;BME280;65486;53.144;18.134;2023-06-22T05:31:42;101399.27;;;23.61;61.59
76598;BME280;65486;53.144;18.134;2023-06-22T05:34:11;101399.83;;;23.74;61.40
76598;BME280;65486;53.144;18.134;2023-06-22T05:36:37;101402.41;;;23.83;61.13
76598;BME280;65486;53.144;18.134;2023-06-22T05:39:14;101408.52;;;23.92;60.35
76598;BME280;65486;53.144;18.134;2023-06-22T05:41:41;101409.95;;;24.22;59.39
76598;BME280;65486;53.144;18.134;2023-06-22T05:44:09;101405.50;;;24.88;58.25
76598;BME280;65486;53.144;18.134;2023-06-22T05:46:40;101408.59;;;25.74;56.37
76598;BME280;65486;53.144;18.134;2023-06-22T05:49:11;101418.24;;;26.65;54.21
76598;BME280;65486;53.144;18.134;2023-06-22T05:51:37;101406.17;;;27.47;52.61
76598;BME280;65486;53.144;18.134;2023-06-22T05:54:06;101395.30;;;28.18;51.66
76598;BME280;65486;53.144;18.134;2023-06-22T05:56:35;101392.08;;;29.03;49.98
76598;BME280;65486;53.144;18.134;2023-06-22T05:59:01;101395.45;;;29.72;48.28
76598;BME280;65486;53.144;18.134;2023-06-22T06:01:27;101394.50;;;30.36;46.48
76598;BME280;65486;53.144;18.134;2023-06-22T06:03:54;101396.77;;;30.89;46.18
76598;BME280;65486;53.144;18.134;2023-06-22T06:06:20;101395.55;;;31.38;43.98
76598;BME280;65486;53.144;18.134;2023-06-22T06:08:48;101385.86;;;31.82;42.23
76598;BME280;65486;53.144;18.134;2023-06-22T06:11:14;101389.66;;;32.26;41.69
76598;BME280;65486;53.144;18.134;2023-06-22T06:13:41;101386.09;;;32.81;40.94
76598;BME280;65486;53.144;18.134;2023-06-22T06:16:08;101389.80;;;33.49;39.44
76598;BME280;65486;53.144;18.134;2023-06-22T06:18:37;101388.77;;;33.95;36.11
76598;BME280;65486;53.144;18.134;2023-06-22T06:21:04;101383.84;;;34.11;34.62
76598;BME280;65486;53.144;18.134;2023-06-22T06:23:30;101385.12;;;34.30;34.63
76598;BME280;65486;53.144;18.134;2023-06-22T06:25:58;101383.27;;;34.53;34.02
76598;BME280;65486;53.144;18.134;2023-06-22T06:28:24;101382.47;;;34.86;33.29
76598;BME280;65486;53.144;18.134;2023-06-22T06:30:55;101391.36;;;35.12;33.23
76598;BME280;65486;53.144;18.134;2023-06-22T06:33:22;101398.05;;;35.28;32.73
76598;BME280;65486;53.144;18.134;2023-06-22T06:35:50;101401.05;;;35.48;31.72
76598;BME280;65486;53.144;18.134;2023-06-22T06:38:17;101397.61;;;35.83;30.91
76598;BME280;65486;53.144;18.134;2023-06-22T06:40:44;101394.84;;;36.12;30.17
76598;BME280;65486;53.144;18.134;2023-06-22T06:43:11;101390.92;;;36.35;28.98
76598;BME280;65486;53.144;18.134;2023-06-22T06:45:37;101387.41;;;36.45;28.28
76598;BME280;65486;53.144;18.134;2023-06-22T06:48:04;101383.64;;;36.54;28.07
76598;BME280;65486;53.144;18.134;2023-06-22T06:50:31;101385.58;;;36.75;27.60
76598;BME280;65486;53.144;18.134;2023-06-22T06:52:58;101391.11;;;37.00;27.49
76598;BME280;65486;53.144;18.134;2023-06-22T06:55:27;101383.67;;;37.22;26.06
76598;BME280;65486;53.144;18.134;2023-06-22T06:57:58;101377.13;;;37.36;25.43
76598;BME280;65486;53.144;18.134;2023-06-22T07:00:26;101371.81;;;37.15;25.63
76598;BME280;65486;53.144;18.134;2023-06-22T07:02:53;101375.50;;;37.09;26.73
76598;BME280;65486;53.144;18.134;2023-06-22T07:05:19;101377.31;;;37.32;25.83
76598;BME280;65486;53.144;18.134;2023-06-22T07:07:48;101381.42;;;37.62;25.34
76598;BME280;65486;53.144;18.134;2023-06-22T07:10:14;101382.20;;;37.65;25.06
76598;BME280;65486;53.144;18.134;2023-06-22T07:12:42;101376.30;;;37.47;25.26
76598;BME280;65486;53.144;18.134;2023-06-22T07:15:11;101382.25;;;37.38;25.68
76598;BME280;65486;53.144;18.134;2023-06-22T07:17:41;101381.09;;;37.43;25.60
76598;BME280;65486;53.144;18.134;2023-06-22T07:20:08;101384.98;;;37.62;25.44
76598;BME280;65486;53.144;18.134;2023-06-22T07:22:40;101387.21;;;37.71;25.01
76598;BME280;65486;53.144;18.134;2023-06-22T07:25:14;101388.77;;;37.77;24.74
76598;BME280;65486;53.144;18.134;2023-06-22T07:28:06;101392.27;;;37.95;24.96
76598;BME280;65486;53.144;18.134;2023-06-22T07:30:32;101386.86;;;38.17;24.11
76598;BME280;65486;53.144;18.134;2023-06-22T07:32:59;101392.52;;;38.31;24.55
76598;BME280;65486;53.144;18.134;2023-06-22T07:35:30;101395.55;;;38.30;24.53
76598;BME280;65486;53.144;18.134;2023-06-22T07:37:58;101396.11;;;38.38;24.53
76598;BME280;65486;53.144;18.134;2023-06-22T07:40:25;101398.29;;;38.57;24.27
76598;BME280;65486;53.144;18.134;2023-06-22T07:42:52;101396.31;;;38.67;24.03
76598;BME280;65486;53.144;18.134;2023-06-22T07:45:20;101401.50;;;38.86;23.72
76598;BME280;65486;53.144;18.134;2023-06-22T07:47:47;101404.02;;;38.91;22.56
76598;BME280;65486;53.144;18.134;2023-06-22T07:50:14;101407.33;;;38.74;21.78
76598;BME280;65486;53.144;18.134;2023-06-22T07:52:40;101411.94;;;38.46;22.44
76598;BME280;65486;53.144;18.134;2023-06-22T07:55:09;101410.55;;;38.43;22.51
76598;BME280;65486;53.144;18.134;2023-06-22T07:57:35;101406.78;;;38.57;22.40
76598;BME280;65486;53.144;18.134;2023-06-22T08:00:06;101400.25;;;38.55;21.96
76598;BME280;65486;53.144;18.134;2023-06-22T08:02:45;101399.73;;;38.45;22.27
76598;BME280;65486;53.144;18.134;2023-06-22T08:05:14;101402.39;;;38.46;22.52
76598;BME280;65486;53.144;18.134;2023-06-22T08:07:41;101401.45;;;38.52;22.78
76598;BME280;65486;53.144;18.134;2023-06-22T08:10:12;101406.16;;;38.64;22.96
76598;BME280;65486;53.144;18.134;2023-06-22T08:12:39;101409.84;;;38.80;22.65
76598;BME280;65486;53.144;18.134;2023-06-22T08:15:06;101407.16;;;38.84;22.62
76598;BME280;65486;53.144;18.134;2023-06-22T08:17:34;101412.73;;;38.88;22.50
76598;BME280;65486;53.144;18.134;2023-06-22T08:20:01;101416.84;;;39.09;22.42
76598;BME280;65486;53.144;18.134;2023-06-22T08:22:27;101418.20;;;39.14;21.47
76598;BME280;65486;53.144;18.134;2023-06-22T08:24:57;101420.23;;;39.10;21.68
76598;BME280;65486;53.144;18.134;2023-06-22T08:27:25;101418.56;;;39.20;21.30
76598;BME280;65486;53.144;18.134;2023-06-22T08:29:54;101419.16;;;39.23;21.31
76598;BME280;65486;53.144;18.134;2023-06-22T08:32:27;101413.72;;;39.23;21.42
76598;BME280;65486;53.144;18.134;2023-06-22T08:34:55;101406.15;;;39.29;21.53
76598;BME280;65486;53.144;18.134;2023-06-22T08:37:22;101410.55;;;39.32;21.18
76598;BME280;65486;53.144;18.134;2023-06-22T08:39:50;101410.30;;;39.30;20.88
76598;BME280;65486;53.144;18.134;2023-06-22T08:42:17;101416.04;;;39.26;21.17
76598;BME280;65486;53.144;18.134;2023-06-22T08:44:44;101416.02;;;39.25;21.28
76598;BME280;65486;53.144;18.134;2023-06-22T08:47:11;101418.60;;;39.36;20.72
76598;BME280;65486;53.144;18.134;2023-06-22T08:49:38;101414.64;;;39.51;20.95
76598;BME280;65486;53.144;18.134;2023-06-22T08:52:06;101411.88;;;39.78;20.96
76598;BME280;65486;53.144;18.134;2023-06-22T08:54:33;101415.42;;;39.98;20.92
76598;BME280;65486;53.144;18.134;2023-06-22T08:57:01;101405.34;;;40.20;20.64
76598;BME280;65486;53.144;18.134;2023-06-22T08:59:30;101405.60;;;40.28;20.68
76598;BME280;65486;53.144;18.134;2023-06-22T09:01:57;101403.64;;;40.31;20.41
76598;BME280;65486;53.144;18.134;2023-06-22T09:04:24;101401.83;;;40.39;20.28
76598;BME280;65486;53.144;18.134;2023-06-22T09:06:52;101402.73;;;40.49;20.73
76598;BME280;65486;53.144;18.134;2023-06-22T09:09:21;101403.66;;;40.61;19.85
76598;BME280;65486;53.144;18.134;2023-06-22T09:11:47;101405.09;;;40.66;19.64
76598;BME280;65486;53.144;18.134;2023-06-22T09:14:17;101408.20;;;40.63;19.67
76598;BME280;65486;53.144;18.134;2023-06-22T09:16:44;101401.92;;;40.51;19.31
76598;BME280;65486;53.144;18.134;2023-06-22T09:19:11;101398.60;;;40.44;19.54
76598;BME280;65486;53.144;18.134;2023-06-22T09:21:38;101395.05;;;40.57;19.56
76598;BME280;65486;53.144;18.134;2023-06-22T09:24:04;101389.95;;;40.73;19.50
76598;BME280;65486;53.144;18.134;2023-06-22T09:26:31;101381.76;;;40.84;18.35
76598;BME280;65486;53.144;18.134;2023-06-22T09:29:00;101380.36;;;40.78;19.16
76598;BME280;65486;53.144;18.134;2023-06-22T09:31:27;101378.88;;;40.80;19.20
76598;BME280;65486;53.144;18.134;2023-06-22T09:33:55;101378.23;;;40.69;18.80
76598;BME280;65486;53.144;18.134;2023-06-22T09:36:21;101372.02;;;40.74;18.99
76598;BME280;65486;53.144;18.134;2023-06-22T09:38:49;101365.65;;;40.80;18.27
76598;BME280;65486;53.144;18.134;2023-06-22T09:41:24;101365.80;;;40.92;18.78
76598;BME280;65486;53.144;18.134;2023-06-22T09:43:52;101364.04;;;41.03;18.54
76598;BME280;65486;53.144;18.134;2023-06-22T09:46:21;101363.06;;;40.91;17.97
76598;BME280;65486;53.144;18.134;2023-06-22T09:48:51;101367.48;;;40.70;18.35
76598;BME280;65486;53.144;18.134;2023-06-22T09:51:23;101367.05;;;40.42;17.97
76598;BME280;65486;53.144;18.134;2023-06-22T09:53:50;101374.03;;;40.15;18.72
76598;BME280;65486;53.144;18.134;2023-06-22T09:56:17;101377.02;;;39.92;18.57
76598;BME280;65486;53.144;18.134;2023-06-22T09:58:44;101376.27;;;39.85;18.86
76598;BME280;65486;53.144;18.134;2023-06-22T10:01:13;101375.45;;;39.86;18.99
76598;BME280;65486;53.144;18.134;2023-06-22T10:03:42;101375.27;;;39.80;18.47
76598;BME280;65486;53.144;18.134;2023-06-22T10:06:08;101374.33;;;39.77;18.59
76598;BME280;65486;53.144;18.134;2023-06-22T10:08:35;101375.33;;;39.60;18.40
76598;BME280;65486;53.144;18.134;2023-06-22T10:11:03;101378.34;;;39.35;18.47
76598;BME280;65486;53.144;18.134;2023-06-22T10:13:30;101378.33;;;39.20;18.99
76598;BME280;65486;53.144;18.134;2023-06-22T10:15:59;101374.40;;;39.39;18.85
76598;BME280;65486;53.144;18.134;2023-06-22T10:18:26;101373.59;;;39.41;18.98
76598;BME280;65486;53.144;18.134;2023-06-22T10:20:53;101371.42;;;39.52;19.15
76598;BME280;65486;53.144;18.134;2023-06-22T10:23:22;101369.66;;;39.66;19.23
76598;BME280;65486;53.144;18.134;2023-06-22T10:25:50;101366.59;;;39.61;18.23
76598;BME280;65486;53.144;18.134;2023-06-22T10:28:16;101365.58;;;39.55;18.29
76598;BME280;65486;53.144;18.134;2023-06-22T10:30:48;101368.42;;;39.46;18.48
76598;BME280;65486;53.144;18.134;2023-06-22T10:33:22;101364.64;;;39.49;17.82
76598;BME280;65486;53.144;18.134;2023-06-22T10:35:48;101360.59;;;39.17;18.03
76598;BME280;65486;53.144;18.134;2023-06-22T10:38:15;101365.73;;;39.09;18.68
76598;BME280;65486;53.144;18.134;2023-06-22T10:40:42;101365.85;;;39.00;18.77
76598;BME280;65486;53.144;18.134;2023-06-22T10:43:08;101357.33;;;38.95;18.58
76598;BME280;65486;53.144;18.134;2023-06-22T10:45:35;101363.54;;;38.90;18.63
76598;BME280;65486;53.144;18.134;2023-06-22T10:48:01;101358.61;;;38.69;18.69
76598;BME280;65486;53.144;18.134;2023-06-22T10:50:30;101358.25;;;38.55;19.16
76598;BME280;65486;53.144;18.134;2023-06-22T10:53:00;101360.39;;;38.57;19.32
76598;BME280;65486;53.144;18.134;2023-06-22T10:55:26;101354.59;;;38.43;19.12
76598;BME280;65486;53.144;18.134;2023-06-22T10:57:53;101355.42;;;38.19;19.62
76598;BME280;65486;53.144;18.134;2023-06-22T11:00:23;101347.05;;;38.12;19.85
76598;BME280;65486;53.144;18.134;2023-06-22T11:02:50;101346.02;;;38.08;19.85
76598;BME280;65486;53.144;18.134;2023-06-22T11:05:17;101343.83;;;37.82;19.69
76598;BME280;65486;53.144;18.134;2023-06-22T11:07:43;101336.83;;;37.47;20.00
76598;BME280;65486;53.144;18.134;2023-06-22T11:10:11;101341.48;;;37.26;20.43
76598;BME280;65486;53.144;18.134;2023-06-22T11:12:40;101344.45;;;37.15;20.54
76598;BME280;65486;53.144;18.134;2023-06-22T11:15:09;101346.42;;;36.84;20.56
76598;BME280;65486;53.144;18.134;2023-06-22T11:17:35;101346.33;;;36.33;21.13
76598;BME280;65486;53.144;18.134;2023-06-22T11:20:02;101346.38;;;36.22;21.50
76598;BME280;65486;53.144;18.134;2023-06-22T11:22:41;101346.14;;;36.27;21.45
76598;BME280;65486;53.144;18.134;2023-06-22T11:25:07;101345.48;;;36.31;21.36
76598;BME280;65486;53.144;18.134;2023-06-22T11:27:34;101344.41;;;36.36;21.31
76598;BME280;65486;53.144;18.134;2023-06-22T11:30:04;101343.02;;;36.27;21.62
76598;BME280;65486;53.144;18.134;2023-06-22T11:32:33;101340.80;;;36.31;21.47
76598;BME280;65486;53.144;18.134;2023-06-22T11:35:00;101335.30;;;36.41;21.76
76598;BME280;65486;53.144;18.134;2023-06-22T11:37:26;101339.80;;;36.55;21.73
76598;BME280;65486;53.144;18.134;2023-06-22T11:39:52;101341.47;;;36.66;21.72
76598;BME280;65486;53.144;18.134;2023-06-22T11:42:20;101342.36;;;36.75;21.34
76598;BME280;65486;53.144;18.134;2023-06-22T11:44:51;101337.08;;;36.63;20.80
76598;BME280;65486;53.144;18.134;2023-06-22T11:47:18;101337.27;;;36.47;20.93
76598;BME280;65486;53.144;18.134;2023-06-22T11:49:45;101335.33;;;36.48;21.24
76598;BME280;65486;53.144;18.134;2023-06-22T11:52:12;101333.86;;;36.67;21.19
76598;BME280;65486;53.144;18.134;2023-06-22T11:54:39;101334.17;;;36.87;20.93
76598;BME280;65486;53.144;18.134;2023-06-22T11:57:06;101333.98;;;36.91;20.81
76598;BME280;65486;53.144;18.134;2023-06-22T11:59:32;101329.31;;;36.75;20.84
76598;BME280;65486;53.144;18.134;2023-06-22T12:01:59;101325.03;;;36.46;20.70
76598;BME280;65486;53.144;18.134;2023-06-22T12:04:28;101324.67;;;36.29;20.69
76598;BME280;65486;53.144;18.134;2023-06-22T12:06:57;101324.06;;;36.09;20.91
76598;BME280;65486;53.144;18.134;2023-06-22T12:09:24;101319.70;;;35.96;20.86
76598;BME280;65486;53.144;18.134;2023-06-22T12:11:53;101316.83;;;35.86;20.85
76598;BME280;65486;53.144;18.134;2023-06-22T12:14:22;101310.58;;;35.82;21.12
76598;BME280;65486;53.144;18.134;2023-06-22T12:16:48;101313.98;;;35.43;21.08
76598;BME280;65486;53.144;18.134;2023-06-22T12:19:15;101308.98;;;35.17;20.96
76598;BME280;65486;53.144;18.134;2023-06-22T12:21:41;101308.48;;;35.16;21.39
76598;BME280;65486;53.144;18.134;2023-06-22T12:24:08;101307.48;;;35.26;21.26
76598;BME280;65486;53.144;18.134;2023-06-22T12:26:34;101307.73;;;35.19;21.40
76598;BME280;65486;53.144;18.134;2023-06-22T12:29:01;101306.94;;;34.99;21.73
76598;BME280;65486;53.144;18.134;2023-06-22T12:31:27;101312.23;;;34.83;22.09
76598;BME280;65486;53.144;18.134;2023-06-22T12:33:54;101304.83;;;34.45;22.62
76598;BME280;65486;53.144;18.134;2023-06-22T12:36:20;101305.31;;;34.16;22.98
76598;BME280;65486;53.144;18.134;2023-06-22T12:38:46;101303.71;;;33.84;22.69
76598;BME280;65486;53.144;18.134;2023-06-22T12:41:12;101299.71;;;33.41;22.83
76598;BME280;65486;53.144;18.134;2023-06-22T12:43:42;101298.48;;;33.07;23.46
76598;BME280;65486;53.144;18.134;2023-06-22T12:46:08;101286.23;;;32.72;23.63
76598;BME280;65486;53.144;18.134;2023-06-22T12:48:34;101294.67;;;32.49;24.30
76598;BME280;65486;53.144;18.134;2023-06-22T12:51:03;101295.59;;;32.15;24.43